createdAt,value
2022-12-19T00:02:18.128Z,41.00
2022-12-19T00:07:22.604Z,41.10
2022-12-19T00:12:25.796Z,41.30
2022-12-19T00:17:28.891Z,41.40
2022-12-19T00:22:33.328Z,41.30
2022-12-19T00:27:37.136Z,41.40
2022-12-19T00:32:40.375Z,41.10
2022-12-19T00:37:47.732Z,40.90
2022-12-19T00:42:53.744Z,40.90
2022-12-19T00:47:56.910Z,41.80
2022-12-19T00:53:01.464Z,41.20
2022-12-19T00:58:04.518Z,41.20
2022-12-19T01:03:07.651Z,41.30
2022-12-19T01:08:12.172Z,41.20
2022-12-19T01:13:15.960Z,41.10
2022-12-19T01:18:19.091Z,41.10
2022-12-19T01:23:23.532Z,40.90
2022-12-19T01:28:26.869Z,40.90
2022-12-19T01:33:30.260Z,40.90
2022-12-19T01:38:35.787Z,41.00
2022-12-19T01:43:57.711Z,41.10
2022-12-19T01:49:02.515Z,41.10
2022-12-19T01:54:09.806Z,41.10
2022-12-19T01:59:17.458Z,41.00
2022-12-19T02:04:21.825Z,40.90
2022-12-19T02:09:26.303Z,41.10
2022-12-19T02:14:29.925Z,41.00
2022-12-19T02:20:12.313Z,40.90
2022-12-19T02:25:40.918Z,40.90
2022-12-19T02:31:01.382Z,40.90
2022-12-19T02:36:15.968Z,40.80
2022-12-19T02:41:25.774Z,40.80
2022-12-19T02:46:30.908Z,41.00
2022-12-19T02:51:34.026Z,41.00
2022-12-19T02:56:46.101Z,40.90
2022-12-19T03:01:56.402Z,40.90
2022-12-19T03:07:05.172Z,40.80
2022-12-19T03:12:17.132Z,40.80
2022-12-19T03:17:22.201Z,40.70
2022-12-19T03:22:25.364Z,40.90
2022-12-19T03:27:32.100Z,40.80
2022-12-19T03:32:39.263Z,40.80
2022-12-19T03:37:44.158Z,40.50
2022-12-19T03:43:07.206Z,40.60
2022-12-19T03:48:15.863Z,40.60
2022-12-19T03:53:32.393Z,40.60
2022-12-19T03:58:39.562Z,40.80
2022-12-19T04:03:44.395Z,40.90
2022-12-19T04:08:48.118Z,40.90
2022-12-19T04:13:55.745Z,41.00
2022-12-19T04:19:06.581Z,41.10
2022-12-19T04:24:13.875Z,41.10
2022-12-19T04:29:17.542Z,41.10
2022-12-19T04:34:22.594Z,41.00
2022-12-19T04:39:25.858Z,41.10
2022-12-19T04:44:29.517Z,41.30
2022-12-19T04:49:34.060Z,41.50
2022-12-19T04:54:37.158Z,41.50
2022-12-19T04:59:40.223Z,41.50
2022-12-19T05:04:44.657Z,41.50
2022-12-19T05:09:47.754Z,41.60
2022-12-19T05:14:50.815Z,41.60
2022-12-19T05:19:55.265Z,41.60
2022-12-19T05:24:58.488Z,41.60
2022-12-19T05:30:02.215Z,41.60
2022-12-19T05:35:08.258Z,41.70
2022-12-19T05:40:12.518Z,41.70
2022-12-19T05:45:15.612Z,41.80
2022-12-19T05:50:20.171Z,41.70
2022-12-19T05:55:23.304Z,41.80
2022-12-19T06:00:26.320Z,41.90
2022-12-19T06:05:30.797Z,41.80
2022-12-19T06:10:33.997Z,42.00
2022-12-19T06:15:37.119Z,41.80
2022-12-19T06:20:41.589Z,41.80
2022-12-19T06:25:44.739Z,42.70
2022-12-19T06:30:47.941Z,42.90
2022-12-19T06:35:58.948Z,42.30
2022-12-19T06:41:21.013Z,42.10
2022-12-19T06:46:24.132Z,41.90
2022-12-19T06:51:28.669Z,41.90
2022-12-19T06:56:36.320Z,41.80
2022-12-19T07:01:52.602Z,41.90
2022-12-19T07:06:57.937Z,41.90
2022-12-19T07:12:01.130Z,41.90
2022-12-19T07:17:04.979Z,41.80
2022-12-19T07:22:10.631Z,41.90
2022-12-19T07:27:13.749Z,41.70
2022-12-19T07:32:16.875Z,41.70
2022-12-19T07:37:21.715Z,41.80
2022-12-19T07:42:28.186Z,42.10
2022-12-19T07:47:35.281Z,42.10
2022-12-19T07:52:39.781Z,42.10
2022-12-19T07:57:42.872Z,42.10
2022-12-19T08:02:46.992Z,42.20
2022-12-19T08:07:51.587Z,42.20
2022-12-19T08:12:54.745Z,42.20
2022-12-19T08:17:57.869Z,42.30
2022-12-19T08:23:02.369Z,42.30
2022-12-19T08:28:05.531Z,42.30
2022-12-19T08:33:09.207Z,42.30
2022-12-19T08:38:13.877Z,42.30
2022-12-19T08:43:17.068Z,43.60
2022-12-19T08:48:20.205Z,43.10
2022-12-19T08:53:26.578Z,42.70
2022-12-19T08:58:31.739Z,42.70
2022-12-19T09:03:42.829Z,42.60
2022-12-19T09:09:00.333Z,42.60
2022-12-19T09:14:05.091Z,42.50
2022-12-19T09:19:08.209Z,42.50
2022-12-19T09:24:12.700Z,42.60
2022-12-19T09:29:20.666Z,42.60
2022-12-19T09:34:25.618Z,42.60
2022-12-19T09:39:42.808Z,42.40
2022-12-19T09:44:59.231Z,42.40
2022-12-19T09:50:07.894Z,42.60
2022-12-19T09:55:18.473Z,42.60
2022-12-19T10:00:23.364Z,42.70
2022-12-19T10:06:01.795Z,42.70
2022-12-19T10:12:42.461Z,42.60
2022-12-19T10:16:37.660Z,42.60
2022-12-19T10:27:19.106Z,42.80
2022-12-19T10:32:31.139Z,42.70
2022-12-19T10:37:49.565Z,42.80
2022-12-19T10:42:59.234Z,42.80
2022-12-19T10:48:14.137Z,42.90
2022-12-19T10:53:26.167Z,42.80
2022-12-19T10:58:35.673Z,42.90
2022-12-19T11:03:40.495Z,42.80
2022-12-19T11:08:43.661Z,43.10
2022-12-19T11:18:53.108Z,42.90
2022-12-19T11:26:53.814Z,42.90
2022-12-19T11:29:39.639Z,42.60
2022-12-19T11:35:49.927Z,42.70
2022-12-19T11:40:56.541Z,42.70
2022-12-19T11:46:05.582Z,42.70
2022-12-19T11:51:18.761Z,42.80
2022-12-19T11:56:24.665Z,42.60
2022-12-19T12:02:03.662Z,42.40
2022-12-19T12:07:27.551Z,42.40
2022-12-19T12:22:02.537Z,42.40
2022-12-19T12:31:02.723Z,42.80
2022-12-19T12:31:07.084Z,42.50
2022-12-19T12:32:03.749Z,43.50
2022-12-19T12:35:41.443Z,42.70
2022-12-19T12:40:29.988Z,42.60
2022-12-19T12:45:39.071Z,42.70
2022-12-19T12:50:45.778Z,42.70
2022-12-19T12:55:53.298Z,43.10
2022-12-19T13:01:10.474Z,42.80
2022-12-19T13:06:27.689Z,42.60
2022-12-19T13:11:59.571Z,42.60
2022-12-19T13:17:03.234Z,42.40
2022-12-19T13:22:20.794Z,42.60
2022-12-19T13:27:35.015Z,42.30
2022-12-19T13:33:09.355Z,42.40
2022-12-19T13:39:47.687Z,42.40
2022-12-19T13:43:50.028Z,42.30
2022-12-19T13:48:56.687Z,42.50
2022-12-19T13:54:01.245Z,42.60
2022-12-19T13:59:07.224Z,42.60
2022-12-19T14:04:12.584Z,42.60
2022-12-19T14:11:26.841Z,42.60
2022-12-19T14:15:13.164Z,42.40
2022-12-19T14:20:48.879Z,42.40
2022-12-19T14:28:20.707Z,42.30
2022-12-19T14:31:17.696Z,42.20
2022-12-19T14:36:27.592Z,42.20
2022-12-19T14:42:01.861Z,42.10
2022-12-19T14:53:51.095Z,42.00
2022-12-19T14:54:55.255Z,42.20
2022-12-19T14:58:56.240Z,42.00
2022-12-19T15:03:52.268Z,42.00
2022-12-19T15:10:57.602Z,41.90
2022-12-19T15:14:56.320Z,41.90
2022-12-19T15:20:02.597Z,44.20
2022-12-19T15:25:06.475Z,43.70
2022-12-19T15:30:17.165Z,42.90
2022-12-19T15:35:20.618Z,42.20
2022-12-19T15:40:24.003Z,42.10
2022-12-19T15:45:30.710Z,42.00
2022-12-19T15:50:34.107Z,42.00
2022-12-19T15:55:39.589Z,42.20
2022-12-19T16:00:50.075Z,43.00
2022-12-19T16:05:53.501Z,42.30
2022-12-19T16:11:01.817Z,42.20
2022-12-19T16:16:15.052Z,42.20
2022-12-19T16:21:25.930Z,42.40
2022-12-19T16:26:35.644Z,42.40
2022-12-19T16:31:40.260Z,42.50
2022-12-19T16:36:43.652Z,42.40
2022-12-19T16:41:47.423Z,42.30
2022-12-19T16:46:52.514Z,43.60
2022-12-19T16:51:55.785Z,43.10
2022-12-19T16:56:59.326Z,42.40
2022-12-19T17:02:16.055Z,42.20
2022-12-19T17:07:20.321Z,41.90
2022-12-19T17:12:26.148Z,41.80
2022-12-19T17:17:30.665Z,41.80
2022-12-19T17:22:33.773Z,41.90
2022-12-19T17:27:36.866Z,42.20
2022-12-19T17:32:41.585Z,42.30
2022-12-19T17:37:49.030Z,42.20
2022-12-19T17:42:52.425Z,42.00
2022-12-19T17:48:02.508Z,42.00
2022-12-19T17:53:06.905Z,41.90
2022-12-19T17:58:10.850Z,42.00
2022-12-19T18:03:21.601Z,41.90
2022-12-19T18:08:27.768Z,41.80
2022-12-19T18:13:32.250Z,41.90
2022-12-19T18:18:37.255Z,42.00
2022-12-19T18:23:40.380Z,42.20
2022-12-19T18:28:43.738Z,42.30
2022-12-19T18:33:48.984Z,42.50
2022-12-19T18:38:52.922Z,42.30
2022-12-19T18:43:56.120Z,42.40
2022-12-19T18:49:01.005Z,42.40
2022-12-19T18:54:06.993Z,42.50
2022-12-19T18:59:11.112Z,42.40
2022-12-19T19:04:17.816Z,42.30
2022-12-19T19:09:22.621Z,42.30
2022-12-19T19:14:25.868Z,42.20
2022-12-19T19:19:30.477Z,42.10
2022-12-19T19:24:33.914Z,42.10
2022-12-19T19:29:37.116Z,41.90
2022-12-19T19:34:43.401Z,41.70
2022-12-19T19:39:47.765Z,41.70
2022-12-19T19:44:50.986Z,41.90
2022-12-19T19:49:56.769Z,42.10
2022-12-19T19:55:00.108Z,42.30
2022-12-19T20:00:04.400Z,42.30
2022-12-19T20:05:10.537Z,42.10
2022-12-19T20:10:14.036Z,41.90
2022-12-19T20:15:17.272Z,41.90
2022-12-19T20:20:21.923Z,41.90
2022-12-19T20:25:25.100Z,42.50
2022-12-19T20:30:28.299Z,41.70
2022-12-19T20:35:32.951Z,41.70
2022-12-19T20:40:36.117Z,41.50
2022-12-19T20:45:39.303Z,41.30
2022-12-19T20:50:45.469Z,41.20
2022-12-19T20:55:57.775Z,41.30
2022-12-19T21:01:06.917Z,41.30
2022-12-19T21:06:13.540Z,41.40
2022-12-19T21:11:16.837Z,41.40
2022-12-19T21:16:22.521Z,41.60
2022-12-19T21:21:28.965Z,41.70
2022-12-19T21:26:32.454Z,41.50
2022-12-19T21:31:35.899Z,41.60
2022-12-19T21:36:44.641Z,41.90
2022-12-19T21:41:47.772Z,41.80
2022-12-19T21:46:51.203Z,41.90
2022-12-19T21:51:55.896Z,41.90
2022-12-19T21:56:59.109Z,41.90
2022-12-19T22:02:02.392Z,41.90
2022-12-19T22:07:07.781Z,42.00
2022-12-19T22:12:13.696Z,42.00
2022-12-19T22:17:16.938Z,42.10
2022-12-19T22:22:21.503Z,42.10
2022-12-19T22:27:25.115Z,42.10
2022-12-19T22:32:28.412Z,42.10
2022-12-19T22:37:33.126Z,42.00
2022-12-19T22:42:36.473Z,41.90
2022-12-19T22:47:42.447Z,41.90
2022-12-19T22:52:46.944Z,41.90
2022-12-19T22:57:50.196Z,41.80
2022-12-19T23:02:53.748Z,41.80
2022-12-19T23:07:58.484Z,41.90
2022-12-19T23:13:01.672Z,41.90
2022-12-19T23:18:04.907Z,42.00
2022-12-19T23:23:09.602Z,42.00
2022-12-19T23:28:12.760Z,42.00
2022-12-19T23:33:15.922Z,42.00
2022-12-19T23:38:20.519Z,42.00
2022-12-19T23:43:23.684Z,42.00
2022-12-19T23:48:28.426Z,42.00
2022-12-19T23:53:45.548Z,42.10
2022-12-19T23:58:48.973Z,42.80
